

Wyoming Mesonet
Water Resources Data System and State Climate Office
SEO WACNet, UW USACE UMRB, USDA-ARS, BLM
| Wind | Soil | |||||||||||||||||||
| Temp | Precip | Speed | Dir | Gust | Dir | Humidity | Pressure | Solar | Snow | Temperature (Deg F) | Moisture (%) | |||||||||
| Date Time (MST) | (F) | (in) | (mph) | (deg) | (mph) | (deg) | (%) | (Mbars) | (w/m^2) | (in) | 5cm | 10cm | 20cm | 50cm | 1m | 5cm | 10cm | 20cm | 50cm | 1m |
| 2026-08-30 00:00:00 | 61.95 | 0.00 | 22.77 | 227 | 28.70 | 234 | 60.9 | 832.0 | 0.0 | 0.1 | 70.16 | 74.48 | 76.46 | 73.40 | 71.78 | 11.7% | 17.7% | 20.6% | 23.2% | 16.5% |
| 2026-08-30 01:00:00 | 61.81 | 0.00 | 19.30 | 229 | 26.08 | 228 | 60.4 | 833.0 | 0.0 | 0.1 | 69.26 | 73.58 | 76.10 | 73.58 | 71.78 | 11.4% | 17.6% | 20.6% | 23.2% | 16.6% |
| 2026-08-30 02:00:00 | 62.42 | 0.00 | 22.37 | 234 | 27.58 | 229 | 59.2 | 833.0 | 0.0 | 0.1 | 68.72 | 72.86 | 75.92 | 73.58 | 71.78 | 11.4% | 17.5% | 20.5% | 23.2% | 16.6% |
| 2026-08-30 03:00:00 | 61.29 | 0.00 | 18.23 | 240 | 27.20 | 235 | 60.3 | 833.0 | 0.0 | 0.1 | 68.18 | 72.32 | 75.56 | 73.58 | 71.78 | 11.4% | 17.4% | 20.5% | 23.2% | 16.5% |
| 2026-08-30 04:00:00 | 60.91 | 0.00 | 18.79 | 233 | 26.96 | 239 | 61.7 | 833.0 | 0.0 | 0.1 | 67.64 | 71.78 | 75.38 | 73.58 | 71.78 | 11.2% | 17.2% | 20.5% | 23.2% | 16.5% |
| 2026-08-30 05:00:00 | 60.87 | 0.00 | 19.30 | 235 | 25.34 | 236 | 65.2 | 832.0 | 0.0 | 0.2 | 66.56 | 71.24 | 75.02 | 73.58 | 71.78 | 11.2% | 17.2% | 20.5% | 23.2% | 16.2% |
| 2026-08-30 06:00:00 | 61.12 | 0.00 | 22.37 | 242 | 27.83 | 237 | 67.2 | 833.0 | 91.5 | 0.1 | 66.20 | 70.52 | 74.84 | 73.58 | 71.78 | 11.1% | 17.1% | 20.5% | 23.2% | 16.7% |
| 2026-08-30 07:00:00 | 63.45 | 0.00 | 24.92 | 244 | 31.43 | 251 | 62.2 | 833.0 | 133.4 | 0.1 | 66.38 | 70.16 | 74.48 | 73.58 | 71.78 | 11.2% | 17.1% | 20.3% | 23.2% | 16.5% |
| 2026-08-30 08:00:00 | 63.93 | 0.00 | 25.39 | 234 | 33.04 | 234 | 58.5 | 833.0 | 76.1 | 0.1 | 67.46 | 69.98 | 74.12 | 73.58 | 71.78 | 11.2% | 17.1% | 20.5% | 23.2% | 16.5% |
| 2026-08-30 09:00:00 | 71.15 | 0.00 | 24.70 | 237 | 35.03 | 238 | 45.7 | 833.0 | 644.1 | 0.1 | 69.26 | 70.16 | 73.94 | 73.58 | 71.78 | 11.3% | 17.1% | 20.5% | 23.3% | 16.3% |
| 2026-08-30 10:00:00 | 75.22 | 0.00 | 25.26 | 241 | 36.53 | 250 | 37.8 | 834.0 | 773.3 | 0.2 | 74.30 | 70.88 | 73.76 | 73.58 | 71.78 | 11.6% | 17.1% | 20.4% | 23.2% | 16.5% |
| 2026-08-30 11:00:00 | 80.13 | 0.00 | 23.24 | 250 | 35.90 | 230 | 29.7 | 833.0 | 928.0 | 0.3 | 80.42 | 72.50 | 73.58 | 73.58 | 71.78 | 12.1% | 17.3% | 20.3% | 23.2% | 16.4% |
| 2026-08-30 12:00:00 | 80.42 | 0.00 | 31.03 | 250 | 42.12 | 257 | 25.8 | 833.0 | 940.0 | 0.1 | 84.74 | 74.66 | 73.40 | 73.40 | 71.78 | 12.4% | 17.6% | 20.5% | 23.2% | 16.4% |
| 2026-08-30 13:00:00 | 77.29 | 0.00 | 28.57 | 257 | 42.86 | 253 | 27.8 | 833.0 | 503.3 | 0.1 | 86.00 | 76.28 | 73.58 | 73.40 | 71.78 | 12.9% | 17.7% | 20.3% | 23.2% | 16.1% |
| 2026-08-30 14:00:00 | 75.42 | 0.00 | 24.76 | 269 | 41.11 | 252 | 28.7 | 833.0 | 406.4 | 0.1 | 84.74 | 77.72 | 73.76 | 73.40 | 71.78 | 12.8% | 17.9% | 20.4% | 23.1% | 16.0% |
| 2026-08-30 15:00:00 | 75.36 | 0.00 | 25.17 | 257 | 36.78 | 266 | 28.4 | 833.0 | 448.4 | 0.0 | 83.84 | 78.08 | 74.12 | 73.40 | 71.78 | 12.5% | 17.9% | 20.4% | 23.2% | 16.7% |
| 2026-08-30 16:00:00 | 76.91 | 0.00 | 23.89 | 255 | 36.40 | 237 | 27.0 | 833.0 | 292.9 | 0.1 | 84.20 | 78.26 | 74.48 | 73.40 | 71.78 | 12.7% | 17.9% | 20.5% | 23.2% | 16.4% |
| 2026-08-30 17:00:00 | 76.57 | 0.00 | 23.53 | 235 | 32.79 | 212 | 26.8 | 833.0 | 309.1 | 0.1 | 82.76 | 78.44 | 74.84 | 73.40 | 71.78 | 12.6% | 18.0% | 20.5% | 23.2% | 16.5% |
| 2026-08-30 18:00:00 | 74.52 | 0.00 | 21.03 | 260 | 32.17 | 248 | 22.3 | 833.0 | 125.3 | 0.0 | 80.42 | 78.26 | 75.02 | 73.40 | 71.78 | 12.2% | 18.0% | 20.6% | 23.2% | 16.3% |
| 2026-08-30 19:00:00 | 63.90 | 0.00 | 10.08 | 53 | 22.86 | 261 | 51.0 | 833.0 | 0.0 | 0.1 | 77.36 | 77.72 | 75.20 | 73.40 | 71.78 | 11.8% | 17.9% | 20.5% | 23.2% | 16.3% |
| 2026-08-30 20:00:00 | 60.13 | 0.00 | 8.93 | 73 | 17.52 | 60 | 61.3 | 834.0 | 0.0 | 0.1 | 73.94 | 76.64 | 75.38 | 73.22 | 71.78 | 11.5% | 17.8% | 20.5% | 23.2% | 16.6% |
| 2026-08-30 21:00:00 | 64.17 | 0.00 | 4.44 | 243 | 11.31 | 92 | 47.8 | 834.0 | 0.0 | 0.0 | 71.42 | 75.56 | 75.38 | 73.22 | 71.78 | 11.4% | 17.8% | 20.6% | 23.1% | 16.3% |
| 2026-08-30 22:00:00 | 56.71 | 0.00 | 5.68 | 64 | 11.68 | 61 | 67.1 | 835.0 | 0.0 | 0.3 | 69.44 | 74.30 | 75.38 | 73.40 | 71.78 | 11.2% | 17.8% | 20.6% | 23.2% | 16.2% |
| 2026-08-30 23:00:00 | 54.72 | 0.00 | 7.58 | 50 | 11.05 | 54 | 73.1 | 835.0 | 0.0 | 0.2 | 67.46 | 73.04 | 75.20 | 73.40 | 71.78 | 11.0% | 17.5% | 20.5% | 23.1% | 16.0% |